Time;durP1;ratioP1;P1;durP2;ratioP2;P2;SDS_P1;SDS_P2;PMS_P1;PMS_P2;Temp;Humidity;BMP_temperature;BMP_pressure;BME280_temperature;BME280_humidity;BME280_pressure;Samples;Min_cycle;Max_cycle;Signal;HPM_P1;HPM_P2
2023/03/26 00:00:58;;;;;;;0.20;0.20;;;;;;;10.79;69.52;100768.34;5096335;28;20087;-82
2023/03/26 00:03:25;;;;;;;0.10;0.10;;;;;;;10.81;69.48;100767.41;5097531;28;20016;-83
2023/03/26 00:08:40;;;;;;;0.10;0.10;;;;;;;10.85;68.71;100765.56;5101562;27;1183403;-85
2023/03/26 00:11:09;;;;;;;0.20;0.20;;;;;;;10.86;69.68;100762.03;5111187;28;20131;-85
2023/03/26 00:13:36;;;;;;;0.10;0.10;;;;;;;10.86;69.40;100764.66;5116502;28;20031;-82
2023/03/26 00:16:03;;;;;;;0.10;0.10;;;;;;;10.86;69.35;100761.16;5116367;28;20032;-85
2023/03/26 00:18:30;;;;;;;0.10;0.10;;;;;;;10.86;69.91;100759.38;5111284;28;20027;-84
2023/03/26 00:20:58;;;;;;;0.00;0.00;;;;;;;10.85;70.46;100754.97;5112806;28;20023;-85
2023/03/26 00:23:25;;;;;;;1.88;0.82;;;;;;;10.87;70.43;100745.22;5114766;28;20062;-83
2023/03/26 00:25:53;;;;;;;0.10;0.10;;;;;;;10.88;69.32;100746.06;5112495;28;20594;-83
2023/03/26 00:28:20;;;;;;;0.10;0.10;;;;;;;10.90;70.27;100742.47;5109108;28;20035;-84
2023/03/26 00:30:48;;;;;;;0.10;0.10;;;;;;;10.92;70.11;100731.88;5115413;28;20019;-84
2023/03/26 00:33:16;;;;;;;0.10;0.10;;;;;;;10.94;70.14;100730.91;5124269;28;20030;-83
2023/03/26 00:35:45;;;;;;;0.10;0.10;;;;;;;10.94;70.64;100725.63;5107665;28;20115;-83
2023/03/26 00:38:13;;;;;;;0.05;0.05;;;;;;;10.95;70.80;100716.75;5116188;28;20024;-81
2023/03/26 00:40:42;;;;;;;0.05;0.05;;;;;;;10.91;70.92;100715.06;5109620;28;20036;-82
2023/03/26 00:43:17;;;;;;;2.30;2.17;;;;;;;10.94;70.87;100715.00;5099912;28;20028;-83
2023/03/26 00:45:52;;;;;;;0.10;0.10;;;;;;;10.96;71.07;100715.81;5099192;28;20028;-84
2023/03/26 00:48:20;;;;;;;0.68;0.68;;;;;;;11.00;70.69;100713.97;5103360;28;20032;-82
2023/03/26 00:50:48;;;;;;;7.32;2.38;;;;;;;11.00;71.24;100712.22;5106954;28;20028;-83
2023/03/26 00:53:16;;;;;;;0.10;0.10;;;;;;;11.03;70.79;100702.44;5110999;28;20085;-83
2023/03/26 00:55:44;;;;;;;0.20;0.20;;;;;;;11.04;71.03;100696.22;5103760;28;20039;-81
2023/03/26 00:58:11;;;;;;;0.10;0.10;;;;;;;11.03;70.96;100692.72;5098234;28;20074;-82
2023/03/26 01:00:47;;;;;;;0.10;0.10;;;;;;;11.08;70.68;100692.56;5101442;28;20032;-83
2023/03/26 01:03:17;;;;;;;0.10;0.10;;;;;;;11.02;71.17;100687.47;5100850;28;20032;-81
2023/03/26 01:05:51;;;;;;;0.10;0.10;;;;;;;11.05;70.94;100687.38;5103006;28;20035;-83
2023/03/26 01:08:30;;;;;;;0.15;0.15;;;;;;;11.07;71.14;100680.25;5104390;28;20029;-84
2023/03/26 01:11:01;;;;;;;0.25;0.25;;;;;;;11.02;71.27;100674.19;5099503;28;20504;-82
2023/03/26 01:13:30;;;;;;;0.10;0.10;;;;;;;11.00;71.26;100677.75;5101302;28;20031;-84
2023/03/26 01:16:00;;;;;;;0.00;0.00;;;;;;;11.03;71.45;100678.56;5095673;28;20032;-83
2023/03/26 01:18:32;;;;;;;1.45;1.33;;;;;;;11.04;71.14;100672.34;5090205;28;20024;-82
2023/03/26 01:21:04;;;;;;;0.10;0.10;;;;;;;11.07;70.94;100664.34;5087846;28;20021;-83
2023/03/26 01:23:40;;;;;;;0.10;0.10;;;;;;;11.06;70.83;100658.16;5086858;28;20029;-83
2023/03/26 01:26:17;;;;;;;0.10;0.10;;;;;;;11.03;71.33;100666.19;5091351;28;20074;-82
2023/03/26 01:28:43;;;;;;;0.10;0.10;;;;;;;10.99;71.32;100667.16;5097486;28;20039;-83
2023/03/26 01:31:24;;;;;;;0.10;0.10;;;;;;;10.97;71.61;100651.31;5084478;28;20059;-83
2023/03/26 01:34:03;;;;;;;0.10;0.10;;;;;;;11.00;71.51;100651.25;5097040;28;20024;-83
2023/03/26 01:36:45;;;;;;;0.10;0.10;;;;;;;10.91;71.26;100638.19;5090617;28;20400;-81
2023/03/26 01:42:02;;;;;;;0.47;0.47;;;;;;;10.80;71.19;100648.19;5075756;28;20419;-82
2023/03/26 01:47:09;;;;;;;0.15;0.15;;;;;;;10.72;71.25;100639.56;5114768;27;20354;-83
2023/03/26 01:49:35;;;;;;;0.30;0.30;;;;;;;10.71;71.68;100629.88;5100513;28;20025;-82
2023/03/26 01:52:01;;;;;;;0.10;0.10;;;;;;;10.66;71.24;100628.19;5094395;28;20154;-82
2023/03/26 01:54:30;;;;;;;0.52;0.52;;;;;;;10.57;72.23;100620.47;5106304;28;20023;-81
2023/03/26 02:02:53;;;;;;;0.10;0.10;;;;;;;10.58;71.86;100616.03;5136954;27;20128;-83
2023/03/26 02:05:26;;;;;;;0.20;0.20;;;;;;;10.57;72.07;100619.63;5129824;27;20039;-82
2023/03/26 02:08:04;;;;;;;0.17;0.17;;;;;;;10.54;71.55;100614.38;5120857;27;20107;-81
2023/03/26 02:10:37;;;;;;;0.10;0.10;;;;;;;10.54;71.38;100614.38;5114699;28;20794;-83
2023/03/26 02:13:04;;;;;;;0.10;0.10;;;;;;;10.53;71.89;100613.50;5113375;28;20102;-83
2023/03/26 02:15:31;;;;;;;0.10;0.10;;;;;;;10.55;71.73;100619.63;5112446;28;20076;-83
2023/03/26 02:17:58;;;;;;;0.95;0.95;;;;;;;10.56;72.20;100617.88;5114490;28;20035;-82
2023/03/26 02:20:28;;;;;;;0.10;0.10;;;;;;;10.60;72.09;100611.59;5114821;28;20050;-83
2023/03/26 02:22:55;;;;;;;2.00;0.95;;;;;;;10.59;72.48;100602.78;5114743;28;20023;-83
2023/03/26 02:25:22;;;;;;;0.63;0.63;;;;;;;10.64;72.14;100594.69;5114058;28;20034;-83
2023/03/26 02:27:50;;;;;;;0.10;0.10;;;;;;;10.66;72.46;100591.09;5113064;28;20449;-83
2023/03/26 02:30:20;;;;;;;0.63;0.63;;;;;;;10.70;71.91;100588.38;5109039;28;20020;-83
2023/03/26 02:32:46;;;;;;;0.10;0.10;;;;;;;10.72;72.21;100581.28;5116283;28;20034;-83
2023/03/26 02:35:13;;;;;;;2.53;0.63;;;;;;;10.72;71.94;100583.94;5113934;28;20031;-84
2023/03/26 02:37:40;;;;;;;0.10;0.10;;;;;;;10.68;72.30;100584.00;5106924;28;20027;-85
2023/03/26 02:40:10;;;;;;;0.10;0.10;;;;;;;10.71;72.31;100583.03;5107026;28;20126;-84
2023/03/26 02:42:37;;;;;;;0.10;0.10;;;;;;;10.76;72.07;100581.13;5112999;28;20024;-82
2023/03/26 02:45:04;;;;;;;0.10;0.10;;;;;;;10.79;71.81;100572.25;5105957;28;20038;-84
2023/03/26 02:47:32;;;;;;;2.10;1.65;;;;;;;10.79;71.82;100577.53;5113582;28;20055;-84
2023/03/26 02:49:58;;;;;;;0.10;0.10;;;;;;;10.80;71.51;100563.38;5118031;28;20087;-81
2023/03/26 02:52:24;;;;;;;0.10;0.10;;;;;;;10.78;72.15;100565.19;5117926;28;20377;-84
2023/03/26 02:54:52;;;;;;;0.10;0.10;;;;;;;10.79;71.94;100562.53;5119029;28;20024;-84
2023/03/26 02:57:18;;;;;;;0.50;0.50;;;;;;;10.75;72.21;100554.69;5110159;28;20038;-84
2023/03/26 02:59:45;;;;;;;20.73;1.30;;;;;;;10.75;72.01;100562.63;5106979;28;20056;-84
2023/03/26 03:02:12;;;;;;;0.00;0.00;;;;;;;10.79;71.74;100567.84;5119661;28;20024;-84
2023/03/26 03:04:38;;;;;;;0.20;0.20;;;;;;;10.78;72.10;100563.44;5117889;27;20106;-81
2023/03/26 03:07:04;;;;;;;2.25;1.33;;;;;;;10.81;71.86;100562.47;5117848;28;20035;-85
2023/03/26 03:09:30;;;;;;;0.10;0.10;;;;;;;10.82;71.79;100559.78;5117873;28;20020;-81
2023/03/26 03:11:57;;;;;;;0.10;0.10;;;;;;;10.78;71.91;100554.59;5112688;28;20044;-79
2023/03/26 03:14:23;;;;;;;0.10;0.10;;;;;;;10.77;71.73;100552.88;5096343;28;20114;-83
2023/03/26 03:16:49;;;;;;;4.88;0.82;;;;;;;10.75;71.23;100555.53;5098259;28;20030;-82
2023/03/26 03:19:15;;;;;;;0.57;0.57;;;;;;;10.76;71.36;100551.13;5103262;28;20035;-81
2023/03/26 03:21:42;;;;;;;0.10;0.10;;;;;;;10.74;71.69;100542.34;5103348;28;20027;-80
2023/03/26 03:24:10;;;;;;;0.10;0.10;;;;;;;10.76;71.73;100540.53;5104533;28;20036;-80
2023/03/26 03:26:36;;;;;;;1.38;1.38;;;;;;;10.76;71.57;100537.88;5110834;28;20036;-81
2023/03/26 03:29:03;;;;;;;0.10;0.10;;;;;;;10.77;71.71;100536.97;5109656;28;20589;-82
2023/03/26 03:31:29;;;;;;;0.10;0.10;;;;;;;10.81;71.55;100526.25;5108258;28;20043;-81
2023/03/26 03:33:55;;;;;;;0.10;0.10;;;;;;;10.84;71.43;100530.59;5108609;28;20028;-83
2023/03/26 03:36:22;;;;;;;0.10;0.10;;;;;;;10.85;71.60;100524.38;5100169;28;20448;-84
2023/03/26 03:38:50;;;;;;;0.10;0.10;;;;;;;10.90;71.57;100532.22;5098771;28;20055;-82
2023/03/26 03:41:17;;;;;;;0.20;0.20;;;;;;;10.92;71.68;100525.09;5098133;28;20035;-82
2023/03/26 03:43:44;;;;;;;0.20;0.20;;;;;;;10.96;71.62;100527.63;5101831;28;20034;-81
2023/03/26 03:46:10;;;;;;;0.15;0.15;;;;;;;10.98;71.25;100527.59;5096465;28;20043;-81
2023/03/26 03:48:37;;;;;;;0.10;0.10;;;;;;;11.02;71.27;100525.75;5106803;28;20028;-80
2023/03/26 03:51:04;;;;;;;0.10;0.10;;;;;;;11.04;71.53;100514.19;5099090;28;20021;-82
2023/03/26 03:53:31;;;;;;;0.10;0.10;;;;;;;11.07;71.23;100508.78;5105535;28;20023;-82
2023/03/26 03:55:58;;;;;;;1.45;1.40;;;;;;;11.10;71.13;100507.81;5097892;28;20020;-82
2023/03/26 03:58:27;;;;;;;1.40;1.35;;;;;;;11.12;71.25;100506.00;5100902;28;20032;-82
2023/03/26 04:00:59;;;;;;;0.15;0.15;;;;;;;11.14;71.56;100509.47;5098344;28;20024;-82
2023/03/26 04:03:26;;;;;;;;;;;;;;;11.27;71.06;100505.56;5099404;28;20032;-82
2023/03/26 04:05:53;;;;;;;0.10;0.10;;;;;;;11.16;71.25;100499.69;5093912;28;19915;-82
2023/03/26 04:08:21;;;;;;;0.10;0.10;;;;;;;11.15;71.33;100500.59;5084771;28;20023;-82
2023/03/26 04:10:47;;;;;;;0.20;0.20;;;;;;;11.13;70.87;100494.50;5101744;28;20039;-81
2023/03/26 04:13:14;;;;;;;0.10;0.10;;;;;;;11.12;70.96;100495.41;5093825;28;20058;-82
2023/03/26 04:15:42;;;;;;;0.10;0.10;;;;;;;11.11;70.86;100494.50;5097704;28;20032;-82
2023/03/26 04:18:10;;;;;;;0.10;0.10;;;;;;;11.10;70.52;100486.59;5096573;28;20028;-85
2023/03/26 04:20:40;;;;;;;0.10;0.10;;;;;;;11.11;70.96;100483.91;5099912;28;20038;-85
2023/03/26 04:23:07;;;;;;;0.10;0.10;;;;;;;11.13;71.08;100476.78;5096823;28;20024;-85
2023/03/26 04:25:35;;;;;;;0.52;0.52;;;;;;;11.14;70.77;100470.59;5096899;28;20020;-84
2023/03/26 04:28:05;;;;;;;0.10;0.10;;;;;;;11.16;71.01;100465.22;5095418;28;20137;-84
2023/03/26 04:30:33;;;;;;;0.15;0.15;;;;;;;11.17;70.53;100464.31;5098196;28;20085;-85
2023/03/26 04:33:02;;;;;;;0.13;0.13;;;;;;;11.20;70.57;100452.75;5092920;28;20482;-85
2023/03/26 04:35:33;;;;;;;0.10;0.10;;;;;;;11.19;70.85;100446.59;5098045;28;20062;-85
2023/03/26 04:38:00;;;;;;;0.20;0.20;;;;;;;11.17;70.42;100451.06;5092361;28;20036;-83
2023/03/26 04:40:29;;;;;;;0.10;0.10;;;;;;;11.15;70.35;100447.56;5097458;28;20028;-83
2023/03/26 04:42:57;;;;;;;0.08;0.08;;;;;;;11.12;70.39;100440.56;5095244;28;20031;-84
2023/03/26 04:45:23;;;;;;;5.22;0.98;;;;;;;11.09;70.76;100439.78;5093097;28;20028;-85
2023/03/26 04:47:50;;;;;;;0.10;0.10;;;;;;;11.07;70.47;100439.00;5098267;28;20027;-85
2023/03/26 04:50:16;;;;;;;0.10;0.10;;;;;;;11.03;70.75;100426.72;5096575;28;20027;-85
2023/03/26 04:52:43;;;;;;;0.10;0.10;;;;;;;10.99;70.40;100426.81;5095680;28;20036;-84
2023/03/26 04:55:21;;;;;;;0.10;0.10;;;;;;;11.01;70.32;100426.75;5087496;28;20094;-84
2023/03/26 04:57:53;;;;;;;0.10;0.10;;;;;;;10.98;70.49;100429.50;5094714;28;20063;-84
2023/03/26 05:00:20;;;;;;;0.10;0.10;;;;;;;10.94;70.52;100418.13;5096289;28;20456;-84
2023/03/26 05:02:49;;;;;;;0.10;0.10;;;;;;;10.94;70.64;100410.19;5090891;28;20131;-85
2023/03/26 05:05:16;;;;;;;0.25;0.25;;;;;;;10.94;70.49;100402.22;5096961;28;20344;-84
2023/03/26 05:07:42;;;;;;;0.28;0.28;;;;;;;10.94;70.66;100402.22;5092939;28;20085;-82
2023/03/26 05:10:12;;;;;;;5.18;1.02;;;;;;;10.95;70.75;100401.31;5092746;28;20031;-84
2023/03/26 05:12:39;;;;;;;0.10;0.10;;;;;;;10.96;71.07;100397.72;5095522;28;20115;-83
2023/03/26 05:15:05;;;;;;;0.10;0.10;;;;;;;10.94;70.99;100396.91;5098751;28;20027;-84
2023/03/26 05:17:33;;;;;;;0.20;0.20;;;;;;;10.95;70.96;100393.38;5098339;28;20051;-82
2023/03/26 05:20:00;;;;;;;0.20;0.20;;;;;;;10.95;71.24;100392.47;5099071;28;20026;-83
2023/03/26 05:22:26;;;;;;;0.10;0.10;;;;;;;10.94;71.33;100386.31;5098949;28;20031;-83
2023/03/26 05:24:52;;;;;;;0.10;0.10;;;;;;;10.94;71.07;100385.44;5097311;28;20024;-84
2023/03/26 05:27:19;;;;;;;0.10;0.10;;;;;;;10.93;70.76;100376.63;5093704;28;20045;-82
2023/03/26 05:29:46;;;;;;;0.10;0.10;;;;;;;10.92;70.78;100369.56;5093132;28;20119;-83
2023/03/26 05:32:12;;;;;;;0.20;0.20;;;;;;;10.91;71.14;100365.19;5095470;28;20034;-82
2023/03/26 05:34:40;;;;;;;0.10;0.10;;;;;;;10.91;70.89;100364.34;5095932;28;20035;-83
2023/03/26 05:37:07;;;;;;;0.17;0.17;;;;;;;10.87;71.12;100360.03;5089871;28;20412;-84
2023/03/26 05:39:34;;;;;;;0.10;0.10;;;;;;;10.84;71.06;100358.31;5097497;28;20035;-84
2023/03/26 05:42:00;;;;;;;0.55;0.55;;;;;;;10.81;70.87;100353.13;5091255;28;20066;-82
2023/03/26 05:44:26;;;;;;;0.20;0.20;;;;;;;10.78;71.08;100350.53;5094029;28;20036;-83
2023/03/26 05:46:53;;;;;;;1.23;1.20;;;;;;;10.76;71.35;100349.75;5092948;28;20023;-84
2023/03/26 05:49:19;;;;;;;0.10;0.10;;;;;;;10.72;71.37;100354.25;5095924;28;20404;-83
2023/03/26 05:51:45;;;;;;;0.10;0.10;;;;;;;10.68;71.15;100348.19;5099771;28;20042;-84
2023/03/26 05:54:11;;;;;;;0.20;0.20;;;;;;;10.70;71.33;100344.63;5092309;28;20103;-85
2023/03/26 05:56:38;;;;;;;6.32;1.85;;;;;;;10.66;71.57;100343.84;5100053;28;20089;-84
2023/03/26 05:59:04;;;;;;;0.10;0.10;;;;;;;10.66;71.54;100342.03;5095491;28;20058;-86
2023/03/26 06:01:30;;;;;;;0.10;0.10;;;;;;;10.67;71.44;100346.44;5089221;28;20524;-84
2023/03/26 06:03:56;;;;;;;0.40;0.40;;;;;;;10.67;71.69;100343.78;5095646;28;20042;-84
2023/03/26 06:06:22;;;;;;;0.10;0.10;;;;;;;10.67;71.74;100338.47;5096976;28;20660;-84
2023/03/26 06:08:51;;;;;;;0.15;0.15;;;;;;;10.68;71.62;100336.72;5098237;28;20159;-84
2023/03/26 06:11:18;;;;;;;0.10;0.10;;;;;;;10.66;71.91;100334.09;5095281;28;20028;-85
2023/03/26 06:13:45;;;;;;;0.80;0.80;;;;;;;10.62;71.84;100336.91;5096244;28;20032;-84
2023/03/26 06:16:13;;;;;;;0.00;0.00;;;;;;;10.61;71.85;100329.84;5098468;28;20035;-84
2023/03/26 06:18:39;;;;;;;0.10;0.10;;;;;;;10.58;71.88;100327.28;5102319;28;20062;-84
2023/03/26 06:21:06;;;;;;;0.10;0.10;;;;;;;10.59;71.93;100335.19;5098821;28;20024;-85
2023/03/26 06:23:32;;;;;;;0.10;0.10;;;;;;;10.61;71.96;100327.19;5099832;28;20488;-85
2023/03/26 06:25:59;;;;;;;0.10;0.10;;;;;;;10.62;71.73;100324.50;5096825;28;20106;-85
2023/03/26 06:28:25;;;;;;;0.10;0.10;;;;;;;10.64;72.14;100322.69;5090538;28;20508;-84
2023/03/26 06:30:51;;;;;;;0.35;0.35;;;;;;;10.66;72.02;100307.59;5097136;28;20016;-85
2023/03/26 06:33:17;;;;;;;0.10;0.10;;;;;;;10.68;72.15;100319.03;5097246;28;20496;-82
2023/03/26 06:35:45;;;;;;;0.10;0.10;;;;;;;10.73;72.04;100324.19;5097026;28;20034;-82
2023/03/26 06:38:12;;;;;;;26.33;2.38;;;;;;;10.72;72.38;100322.47;5086475;28;20024;-82
2023/03/26 06:40:38;;;;;;;0.10;0.10;;;;;;;10.73;72.35;100315.38;5092819;28;20039;-83
2023/03/26 06:43:04;;;;;;;0.10;0.10;;;;;;;10.75;72.37;100322.34;5094218;28;20039;-83
2023/03/26 06:45:32;;;;;;;0.10;0.10;;;;;;;10.77;72.04;100322.34;5093395;28;20500;-85
2023/03/26 06:47:59;;;;;;;0.10;0.10;;;;;;;10.77;71.82;100325.00;5097996;28;20111;-85
2023/03/26 06:50:26;;;;;;;0.10;0.10;;;;;;;10.76;72.21;100331.19;5094934;28;20021;-83
2023/03/26 06:52:54;;;;;;;0.10;0.10;;;;;;;10.73;72.12;100328.63;5097192;28;20104;-84
2023/03/26 06:55:21;;;;;;;0.00;0.00;;;;;;;10.73;72.06;100328.63;5096424;28;20050;-84
2023/03/26 06:57:50;;;;;;;0.10;0.10;;;;;;;10.75;71.74;100330.31;5098705;28;20512;-83
2023/03/26 07:00:16;;;;;;;0.30;0.30;;;;;;;10.75;72.10;100326.81;5093830;28;20035;-84
2023/03/26 07:02:43;;;;;;;0.10;0.10;;;;;;;10.74;71.97;100335.66;5098150;28;20519;-84
2023/03/26 07:05:09;;;;;;;0.93;0.93;;;;;;;10.80;72.02;100330.19;5105203;28;20036;-83
2023/03/26 07:07:35;;;;;;;1.50;1.45;;;;;;;10.83;72.08;100330.09;5103880;28;20047;-84
2023/03/26 07:10:01;;;;;;;0.10;0.10;;;;;;;10.89;72.16;100324.63;5104015;28;20088;-84
2023/03/26 07:12:27;;;;;;;0.10;0.10;;;;;;;10.97;72.14;100319.09;5098139;28;20024;-83
2023/03/26 07:14:53;;;;;;;0.10;0.10;;;;;;;11.03;72.41;100318.03;5093131;28;20051;-83
2023/03/26 07:17:19;;;;;;;0.10;0.10;;;;;;;11.10;71.95;100322.22;5097519;28;20040;-84
2023/03/26 07:19:46;;;;;;;0.10;0.10;;;;;;;11.16;72.44;100320.28;5101743;28;20118;-80
2023/03/26 07:22:19;;;;;;;0.10;0.10;;;;;;;11.23;72.05;100317.44;5097857;28;20028;-80
2023/03/26 07:24:46;;;;;;;0.10;0.10;;;;;;;11.26;71.93;100314.66;5099733;28;20043;-82
2023/03/26 07:27:36;;;;;;;0.10;0.10;;;;;;;11.33;71.55;100309.13;5094170;28;20031;-83
2023/03/26 07:30:11;;;;;;;0.10;0.10;;;;;;;11.30;71.94;100311.88;5096668;28;20028;-83
2023/03/26 07:38:23;;;;;;;0.30;0.30;;;;;;;11.27;72.14;100309.31;5082854;27;1181512;-82
2023/03/26 07:46:22;;;;;;;0.10;0.10;;;;;;;11.44;71.77;100305.25;5109620;27;20408;-84
2023/03/26 07:48:50;;;;;;;0.40;0.40;;;;;;;11.42;71.83;100305.31;5095264;28;20054;-83
2023/03/26 07:51:17;;;;;;;1.95;1.85;;;;;;;11.45;71.42;100299.91;5093120;28;20020;-83
2023/03/26 07:53:43;;;;;;;0.10;0.10;;;;;;;11.41;72.07;100302.72;5093493;28;20020;-83
2023/03/26 08:07:04;;;;;;;0.30;0.30;;;;;;;11.64;71.36;100296.66;5091333;27;20447;-83
2023/03/26 08:09:42;;;;;;;0.10;0.10;;;;;;;11.69;72.03;100301.78;5071411;28;20082;-84
2023/03/26 08:12:37;;;;;;;0.35;0.35;;;;;;;11.73;71.56;100300.78;5068378;28;20056;-83
2023/03/26 08:18:17;;;;;;;0.30;0.30;;;;;;;11.72;71.74;100305.22;5080804;28;20379;-82
2023/03/26 08:20:57;;;;;;;0.10;0.10;;;;;;;11.78;71.51;100304.16;5073934;28;20041;-83
2023/03/26 08:29:25;;;;;;;0.65;0.65;;;;;;;11.67;70.99;100301.84;5097513;27;20389;-81
2023/03/26 08:31:53;;;;;;;1.25;0.52;;;;;;;11.59;71.03;100291.50;5084416;28;20036;-82
2023/03/26 08:34:19;;;;;;;0.10;0.10;;;;;;;11.59;71.94;100299.47;5090573;28;20032;-82
2023/03/26 08:36:45;;;;;;;0.85;0.85;;;;;;;11.58;71.54;100296.88;5097556;28;20092;-81
2023/03/26 08:39:13;;;;;;;0.32;0.32;;;;;;;11.57;71.98;100303.94;5087802;28;20370;-81
2023/03/26 08:44:58;;;;;;;0.22;0.22;;;;;;;11.57;71.73;100303.09;5094206;27;20385;-81
2023/03/26 08:53:51;;;;;;;0.10;0.10;;;;;;;11.57;72.51;100303.94;5099297;27;20464;-81
2023/03/26 08:56:45;;;;;;;1.10;1.10;;;;;;;11.60;73.04;100301.19;5088644;28;20052;-83
2023/03/26 08:59:40;;;;;;;2.47;2.20;;;;;;;11.62;72.68;100296.69;5083560;28;20041;-85
2023/03/26 09:02:30;;;;;;;0.13;0.13;;;;;;;11.60;72.84;100300.31;5075378;28;20063;-85
2023/03/26 09:05:19;;;;;;;1.45;1.45;;;;;;;11.65;72.88;100296.59;5071020;28;20040;-86
2023/03/26 09:10:50;;;;;;;1.13;1.13;;;;;;;11.60;72.67;100300.31;5122167;27;1190036;-82
2023/03/26 09:13:49;;;;;;;0.28;0.28;;;;;;;11.64;72.41;100299.31;5144254;27;20060;-84
2023/03/26 09:16:47;;;;;;;0.10;0.10;;;;;;;11.68;73.34;100308.03;5132968;27;20031;-83
2023/03/26 09:19:42;;;;;;;0.10;0.10;;;;;;;11.68;72.75;100306.25;5111694;28;20118;-84
2023/03/26 09:25:24;;;;;;;1.90;1.35;;;;;;;11.73;73.64;100306.09;5117526;27;1188765;-84
2023/03/26 09:33:30;;;;;;;0.10;0.10;;;;;;;11.96;72.80;100306.22;5108763;27;20136;-83
2023/03/26 09:36:18;;;;;;;0.10;0.10;;;;;;;11.97;72.90;100309.72;5100931;28;20122;-82
2023/03/26 09:38:52;;;;;;;0.10;0.10;;;;;;;11.91;72.68;100315.22;5098300;28;20114;-82
2023/03/26 09:41:35;;;;;;;0.08;0.08;;;;;;;11.84;72.87;100314.56;5098289;28;20107;-82
2023/03/26 09:44:41;;;;;;;0.10;0.10;;;;;;;11.76;72.14;100311.28;5093397;28;20032;-83
2023/03/26 09:52:45;;;;;;;0.10;0.10;;;;;;;11.57;72.36;100317.19;5117296;27;20392;-82
2023/03/26 09:58:31;;;;;;;0.10;0.10;;;;;;;11.48;72.09;100330.78;5064137;28;20139;-83
2023/03/26 10:09:30;;;;;;;1.20;1.20;;;;;;;11.39;72.27;100328.41;5176162;27;20418;-85
2023/03/26 10:12:21;;;;;;;0.95;0.95;;;;;;;11.47;72.81;100337.00;5155276;27;20099;-82
2023/03/26 10:15:16;;;;;;;0.15;0.15;;;;;;;11.55;72.74;100336.75;5155326;27;20035;-82
2023/03/26 10:17:55;;;;;;;0.10;0.10;;;;;;;11.43;72.16;100343.31;5147073;27;20576;-80
2023/03/26 10:23:45;;;;;;;2.92;0.63;;;;;;;11.54;72.51;100349.16;5055749;28;20435;-81
2023/03/26 10:26:27;;;;;;;0.10;0.10;;;;;;;11.43;72.13;100351.28;5038726;28;20042;-81
2023/03/26 10:31:50;;;;;;;0.20;0.20;;;;;;;11.40;72.33;100346.06;5102109;27;20407;-83
2023/03/26 10:34:46;;;;;;;0.13;0.13;;;;;;;11.49;72.64;100361.72;5080637;28;20861;-83
2023/03/26 10:37:34;;;;;;;0.35;0.35;;;;;;;11.52;72.23;100366.91;5080175;28;20040;-83
2023/03/26 10:45:48;;;;;;;0.20;0.20;;;;;;;11.47;72.20;100367.03;5093606;27;20498;-86
2023/03/26 10:48:54;;;;;;;0.20;0.20;;;;;;;11.52;72.22;100376.66;5064181;28;20037;-86
2023/03/26 10:51:49;;;;;;;0.10;0.10;;;;;;;11.48;72.43;100370.56;5069320;28;20029;-85
2023/03/26 10:54:34;;;;;;;0.38;0.38;;;;;;;11.47;72.17;100379.44;5077396;28;20033;-83
2023/03/26 10:57:04;;;;;;;0.10;0.10;;;;;;;11.42;72.13;100382.22;5079818;28;20031;-85
2023/03/26 10:59:31;;;;;;;0.10;0.10;;;;;;;11.43;72.25;100391.06;5073499;28;20052;-85
2023/03/26 11:02:36;;;;;;;0.13;0.13;;;;;;;11.45;71.36;100397.19;5069998;28;20044;-86
2023/03/26 11:05:32;;;;;;;0.10;0.10;;;;;;;11.45;71.94;100387.47;5067140;28;20116;-86
2023/03/26 11:08:14;;;;;;;0.32;0.32;;;;;;;11.48;72.03;100391.78;5080562;28;20103;-86
2023/03/26 11:13:42;;;;;;;0.10;0.10;;;;;;;11.56;71.81;100399.50;5109299;27;1335323;-86
2023/03/26 11:16:17;;;;;;;0.10;0.10;;;;;;;11.51;71.73;100407.59;5132470;27;20088;-84
2023/03/26 11:18:55;;;;;;;0.10;0.10;;;;;;;11.48;71.02;100407.72;5112313;28;20388;-84
2023/03/26 11:21:41;;;;;;;0.10;0.10;;;;;;;11.40;71.34;100404.41;5112388;28;20051;-84
2023/03/26 11:27:09;;;;;;;0.10;0.10;;;;;;;11.33;71.00;100425.81;5123095;27;20382;-85
2023/03/26 11:30:15;;;;;;;0.10;0.10;;;;;;;11.24;70.98;100414.63;5101526;28;20044;-85
2023/03/26 11:32:47;;;;;;;0.10;0.10;;;;;;;11.23;70.90;100427.00;5083366;28;20050;-86
2023/03/26 11:35:35;;;;;;;0.20;0.20;;;;;;;11.30;70.71;100420.63;5094826;28;20028;-85
2023/03/26 11:38:09;;;;;;;0.10;0.10;;;;;;;11.24;71.08;100431.41;5099364;28;20016;-85
2023/03/26 11:40:41;;;;;;;0.10;0.10;;;;;;;11.27;71.33;100426.00;5090472;28;20027;-86
2023/03/26 11:43:11;;;;;;;0.20;0.20;;;;;;;11.29;71.15;100439.22;5093739;28;20056;-88
2023/03/26 11:45:41;;;;;;;1.65;1.55;;;;;;;11.28;71.19;100438.34;5087352;28;20119;-86
2023/03/26 11:50:52;;;;;;;4.90;3.28;;;;;;;11.24;70.91;100446.44;5063414;28;20479;-85
2023/03/26 11:53:21;;;;;;;0.77;0.77;;;;;;;11.22;71.02;100449.13;5066133;28;20041;-86
2023/03/26 11:55:58;;;;;;;0.10;0.10;;;;;;;11.18;71.42;100452.81;5061546;28;20025;-81
2023/03/26 12:01:12;;;;;;;0.10;0.10;;;;;;;11.00;71.31;100457.72;5112548;27;20363;-82
2023/03/26 12:03:39;;;;;;;0.10;0.10;;;;;;;10.97;71.22;100464.88;5081709;28;20051;-82
2023/03/26 12:06:21;;;;;;;0.10;0.10;;;;;;;10.92;71.14;100462.34;5079003;28;20047;-85
2023/03/26 12:08:48;;;;;;;0.10;0.10;;;;;;;10.86;71.57;100462.53;5073997;28;20056;-85
2023/03/26 12:11:17;;;;;;;0.10;0.10;;;;;;;10.85;71.21;100466.06;5082438;28;20028;-83
2023/03/26 12:13:51;;;;;;;0.10;0.10;;;;;;;10.87;71.35;100464.25;5086941;28;20036;-84
2023/03/26 12:16:19;;;;;;;0.10;0.10;;;;;;;10.93;71.74;100481.75;5077433;28;20096;-84
2023/03/26 12:18:57;;;;;;;0.25;0.25;;;;;;;11.03;71.72;100475.31;5082780;28;20036;-85
2023/03/26 12:21:23;;;;;;;0.63;0.63;;;;;;;11.11;72.04;100475.94;5091221;28;20020;-85
2023/03/26 12:29:14;;;;;;;0.10;0.10;;;;;;;11.30;71.62;100476.31;5084684;27;1248388;-85
2023/03/26 12:31:48;;;;;;;0.10;0.10;;;;;;;11.41;72.08;100485.75;5125834;28;20027;-85
2023/03/26 12:34:30;;;;;;;0.32;0.32;;;;;;;11.44;70.97;100481.22;5118729;28;20043;-86
2023/03/26 12:37:42;;;;;;;0.20;0.20;;;;;;;11.73;70.55;100481.25;5123390;28;20031;-86
2023/03/26 12:40:34;;;;;;;0.40;0.40;;;;;;;11.87;70.80;100489.66;5128610;28;20024;-86
2023/03/26 12:43:03;;;;;;;0.47;0.47;;;;;;;11.91;70.09;100495.75;5121578;28;20027;-83
2023/03/26 12:45:37;;;;;;;0.10;0.10;;;;;;;11.84;68.34;100496.84;5123584;27;20028;-83
2023/03/26 12:48:04;;;;;;;0.10;0.10;;;;;;;11.79;68.84;100497.00;5126141;27;20062;-82
2023/03/26 12:50:42;;;;;;;0.90;0.90;;;;;;;11.73;68.49;100506.00;5128696;27;20019;-83
2023/03/26 12:56:18;;;;;;;0.10;0.10;;;;;;;11.74;67.08;100509.50;5122462;27;20424;-83
2023/03/26 13:01:41;;;;;;;1.20;1.20;;;;;;;11.76;66.04;100513.88;5072552;28;20394;-81
2023/03/26 13:07:24;;;;;;;0.10;0.10;;;;;;;11.95;66.37;100524.81;5111351;27;1221687;-81
2023/03/26 13:15:23;;;;;;;0.10;0.10;;;;;;;12.09;65.56;100526.19;5131105;27;20423;-82
2023/03/26 13:20:50;;;;;;;0.10;0.10;;;;;;;12.14;63.76;100524.28;5144730;27;20357;-83
2023/03/26 13:26:42;;;;;;;0.10;0.10;;;;;;;12.14;62.00;100537.53;5072657;27;20416;-81
2023/03/26 13:29:30;;;;;;;0.10;0.10;;;;;;;12.16;63.19;100537.50;5052321;28;20053;-83
2023/03/26 13:32:28;;;;;;;0.10;0.10;;;;;;;12.19;61.72;100542.72;5043306;28;20036;-83
2023/03/26 13:35:34;;;;;;;0.10;0.10;;;;;;;12.13;60.49;100541.13;5055526;28;20712;-82
2023/03/26 13:41:34;;;;;;;0.10;0.10;;;;;;;12.18;60.20;100551.59;4954531;28;20098;-82
2023/03/26 13:44:11;;;;;;;0.10;0.10;;;;;;;12.24;61.25;100557.56;4942041;28;20036;-83
2023/03/26 13:46:45;;;;;;;0.10;0.10;;;;;;;12.42;61.08;100549.94;4944168;28;20040;-82
2023/03/26 13:49:19;;;;;;;3.45;1.60;;;;;;;12.50;59.89;100558.53;4926586;28;20032;-81
2023/03/26 13:51:55;;;;;;;0.00;0.00;;;;;;;12.60;59.28;100554.66;4930103;28;20091;-82
2023/03/26 14:00:08;;;;;;;0.20;0.20;;;;;;;12.68;59.78;100572.13;5202675;27;20128;-84
2023/03/26 14:02:40;;;;;;;0.10;0.10;;;;;;;12.72;58.86;100571.09;5142383;27;1249320;-85
2023/03/26 14:06:05;;;;;;;0.10;0.10;;;;;;;12.82;59.81;100574.34;5161430;27;20034;-86
2023/03/26 14:10:52;;;;;;;0.10;0.10;;;;;;;12.88;57.54;100572.31;5089125;27;20933;-87